Time;durP1;ratioP1;P1;durP2;ratioP2;P2;SDS_P1;SDS_P2;PMS_P1;PMS_P2;Temp;Humidity;BMP_temperature;BMP_pressure;BME280_temperature;BME280_humidity;BME280_pressure;Samples;Min_cycle;Max_cycle;Signal;HPM_P1;HPM_P2
2021/09/21 00:01:17;;;;;;;;;25.75;23.75;;;;;;;;5081684;28;45309;-82
2021/09/21 00:03:42;;;;;;;;;27.50;23.75;;;;;;;;5081505;28;45461;-82
2021/09/21 00:06:07;;;;;;;;;33.33;28.33;;;;;;;;5081278;28;45498;-81
2021/09/21 00:08:33;;;;;;;;;22.25;19.75;;;;;;;;5081255;28;45327;-82
2021/09/21 00:10:59;;;;;;;;;36.75;24.25;;;;;;;;5081708;28;45421;-82
2021/09/21 00:13:25;;;;;;;;;27.50;23.50;;;;;;;;5081428;28;45629;-81
2021/09/21 00:15:50;;;;;;;;;23.50;17.75;;;;;;;;5085423;28;46625;-81
2021/09/21 00:18:15;;;;;;;;;27.33;24.67;;;;;;;;5064752;28;45327;-81
2021/09/21 00:20:41;;;;;;;;;29.67;24.67;;;;;;;;5082270;28;45347;-81
2021/09/21 00:23:06;;;;;;;;;29.75;23.25;;;;;;;;5083103;28;45228;-82
2021/09/21 00:25:31;;;;;;;;;30.67;24.00;;;;;;;;5064643;28;48262;-82
2021/09/21 00:27:57;;;;;;;;;32.50;24.00;;;;;;;;5085210;28;45696;-81
2021/09/21 00:30:23;;;;;;;;;29.50;23.25;;;;;;;;5085081;28;45373;-81
2021/09/21 00:32:54;;;;;;;;;34.25;24.50;;;;;;;;5082120;28;45526;-81
2021/09/21 00:35:20;;;;;;;;;27.75;24.75;;;;;;;;5081801;28;46431;-81
2021/09/21 00:37:45;;;;;;;;;35.50;25.00;;;;;;;;5081390;28;45697;-81
2021/09/21 00:40:10;;;;;;;;;32.67;25.67;;;;;;;;5081999;28;45331;-81
2021/09/21 00:42:38;;;;;;;;;31.25;26.75;;;;;;;;5063224;28;45952;-81
2021/09/21 00:45:05;;;;;;;;;34.50;28.50;;;;;;;;5063028;28;48332;-81
2021/09/21 00:47:32;;;;;;;;;16.50;9.25;;;;;;;;5081227;28;45262;-81
2021/09/21 00:49:57;;;;;;;;;31.75;26.75;;;;;;;;5082301;28;45412;-80
2021/09/21 00:52:23;;;;;;;;;33.00;26.25;;;;;;;;5064614;28;45450;-81
2021/09/21 00:54:49;;;;;;;;;31.25;26.25;;;;;;;;5082619;28;45445;-81
2021/09/21 00:57:14;;;;;;;;;34.50;29.50;;;;;;;;5082673;28;45429;-81
2021/09/21 00:59:40;;;;;;;;;31.00;24.75;;;;;;;;5082598;28;45400;-81
2021/09/21 01:02:05;;;;;;;;;34.25;26.25;;;;;;;;5084352;28;45413;-81
2021/09/21 01:04:31;;;;;;;;;33.00;28.67;;;;;;;;5068570;28;47035;-80
2021/09/21 01:06:56;;;;;;;;;32.25;28.25;;;;;;;;5067124;28;45366;-81
2021/09/21 01:09:22;;;;;;;;;36.00;30.67;;;;;;;;5065740;28;45231;-81
2021/09/21 01:11:49;;;;;;;;;37.00;27.50;;;;;;;;5083240;28;45230;-82
2021/09/21 01:14:14;;;;;;;;;32.00;27.25;;;;;;;;5083553;28;45615;-81
2021/09/21 01:16:40;;;;;;;;;31.00;27.00;;;;;;;;5083256;28;45220;-81
2021/09/21 01:19:05;;;;;;;;;36.50;29.75;;;;;;;;5081780;28;45268;-81
2021/09/21 01:21:31;;;;;;;;;39.25;30.25;;;;;;;;5081273;28;45394;-81
2021/09/21 01:23:56;;;;;;;;;29.75;27.50;;;;;;;;5064388;28;46141;-81
2021/09/21 01:26:23;;;;;;;;;36.25;30.50;;;;;;;;5082125;28;45279;-81
2021/09/21 01:28:49;;;;;;;;;33.00;29.75;;;;;;;;5077293;27;45468;-80
2021/09/21 01:31:14;;;;;;;;;28.00;23.00;;;;;;;;5103343;27;44792;-79
2021/09/21 01:33:39;;;;;;;;;45.25;30.00;;;;;;;;5102434;28;45138;-79
2021/09/21 01:36:08;;;;;;;;;39.25;32.00;;;;;;;;5073003;28;45471;-81
2021/09/21 01:38:33;;;;;;;;;38.25;30.25;;;;;;;;5089418;28;45362;-81
2021/09/21 01:40:58;;;;;;;;;45.25;30.00;;;;;;;;5074727;28;45678;-81
2021/09/21 01:43:24;;;;;;;;;47.00;32.67;;;;;;;;5082613;28;46044;-82
2021/09/21 01:45:49;;;;;;;;;36.25;30.25;;;;;;;;5084909;28;45303;-81
2021/09/21 01:48:14;;;;;;;;;34.75;29.50;;;;;;;;5088038;28;45162;-81
2021/09/21 01:50:50;;;;;;;;;36.00;28.25;;;;;;;;5073183;28;45359;-80
2021/09/21 01:58:47;;;;;;;;;41.25;29.00;;;;;;;;5087220;28;45307;-81
2021/09/21 02:01:15;;;;;;;;;36.00;30.00;;;;;;;;5070981;28;45426;-82
2021/09/21 02:03:40;;;;;;;;;36.75;29.00;;;;;;;;5071406;28;47254;-81
2021/09/21 02:06:06;;;;;;;;;34.75;28.00;;;;;;;;5088700;28;45249;-81
2021/09/21 02:08:32;;;;;;;;;33.00;26.75;;;;;;;;5068414;28;45493;-81
2021/09/21 02:10:58;;;;;;;;;31.50;29.75;;;;;;;;5088693;28;45450;-80
2021/09/21 02:13:24;;;;;;;;;33.50;27.50;;;;;;;;5084768;28;45232;-81
2021/09/21 02:15:49;;;;;;;;;40.25;32.75;;;;;;;;5085114;28;45323;-81
2021/09/21 02:18:14;;;;;;;;;36.25;28.75;;;;;;;;5068836;28;45518;-81
2021/09/21 02:20:40;;;;;;;;;38.33;32.33;;;;;;;;5088466;28;45260;-81
2021/09/21 02:23:14;;;;;;;;;38.00;28.25;;;;;;;;5072755;28;47149;-82
2021/09/21 02:25:39;;;;;;;;;36.00;28.00;;;;;;;;5085533;28;45668;-82
2021/09/21 02:28:05;;;;;;;;;42.33;30.67;;;;;;;;5063900;28;45538;-82
2021/09/21 02:30:30;;;;;;;;;38.67;31.33;;;;;;;;5079975;28;45307;-82
2021/09/21 02:32:55;;;;;;;;;35.00;30.33;;;;;;;;5083654;28;45277;-82
2021/09/21 02:35:20;;;;;;;;;35.00;28.75;;;;;;;;5080815;28;45224;-82
2021/09/21 02:37:46;;;;;;;;;30.00;27.75;;;;;;;;5079657;28;45465;-81
2021/09/21 02:40:12;;;;;;;;;37.75;32.75;;;;;;;;5079272;28;45478;-81
2021/09/21 02:42:38;;;;;;;;;43.25;33.25;;;;;;;;5079358;28;46813;-81
2021/09/21 02:45:04;;;;;;;;;38.25;32.50;;;;;;;;5058658;28;45464;-81
2021/09/21 02:47:29;;;;;;;;;40.75;34.00;;;;;;;;5072945;28;45405;-81
2021/09/21 02:49:55;;;;;;;;;44.00;31.50;;;;;;;;5082406;28;45478;-81
2021/09/21 02:52:20;;;;;;;;;48.00;37.33;;;;;;;;5080922;28;46351;-81
2021/09/21 02:54:45;;;;;;;;;47.33;34.00;;;;;;;;5082153;28;45443;-81
2021/09/21 02:57:10;;;;;;;;;46.00;33.67;;;;;;;;5085209;28;45352;-81
2021/09/21 02:59:35;;;;;;;;;35.67;33.00;;;;;;;;5083996;28;45223;-81
2021/09/21 03:02:01;;;;;;;;;43.00;34.67;;;;;;;;5064331;28;47525;-81
2021/09/21 03:04:32;;;;;;;;;38.50;32.00;;;;;;;;5082745;28;45306;-81
2021/09/21 03:07:04;;;;;;;;;51.75;36.50;;;;;;;;5083067;28;45503;-81
2021/09/21 03:12:11;;;;;;;;;35.67;29.33;;;;;;;;5083314;28;46215;-81
2021/09/21 03:17:26;;;;;;;;;40.50;32.25;;;;;;;;5083207;28;45424;-81
2021/09/21 03:19:51;;;;;;;;;39.50;31.75;;;;;;;;5083044;28;45408;-81
2021/09/21 03:22:16;;;;;;;;;42.75;35.25;;;;;;;;5082567;28;46013;-81
2021/09/21 03:24:41;;;;;;;;;47.67;35.00;;;;;;;;5082993;28;45455;-81
2021/09/21 03:27:07;;;;;;;;;40.67;33.00;;;;;;;;5082348;28;45474;-81
2021/09/21 03:29:33;;;;;;;;;45.67;34.33;;;;;;;;5081080;28;45222;-81
2021/09/21 03:31:58;;;;;;;;;43.75;33.25;;;;;;;;5086557;28;45508;-81
2021/09/21 03:34:23;;;;;;;;;37.67;30.00;;;;;;;;5068855;28;44799;-81
2021/09/21 03:36:48;;;;;;;;;45.50;35.50;;;;;;;;5066031;28;45348;-81
2021/09/21 03:39:13;;;;;;;;;46.00;34.25;;;;;;;;5068511;28;45369;-82
2021/09/21 03:41:39;;;;;;;;;43.33;35.00;;;;;;;;5086603;28;45615;-81
2021/09/21 03:44:04;;;;;;;;;49.33;37.00;;;;;;;;5065311;28;45418;-81
2021/09/21 03:46:29;;;;;;;;;44.00;36.00;;;;;;;;5082336;28;45441;-81
2021/09/21 03:48:56;;;;;;;;;50.67;36.00;;;;;;;;5081574;28;45501;-81
2021/09/21 03:51:21;;;;;;;;;46.50;36.00;;;;;;;;5081490;28;46160;-81
2021/09/21 03:53:47;;;;;;;;;44.75;35.50;;;;;;;;5081548;28;45250;-81
2021/09/21 03:56:12;;;;;;;;;43.33;34.67;;;;;;;;5082030;28;45472;-81
2021/09/21 03:58:37;;;;;;;;;48.33;36.33;;;;;;;;5081308;28;45308;-81
2021/09/21 04:01:02;;;;;;;;;47.00;36.00;;;;;;;;5081572;28;45461;-81
2021/09/21 04:03:28;;;;;;;;;49.00;39.00;;;;;;;;5081225;28;45696;-81
2021/09/21 04:05:53;;;;;;;;;45.50;36.00;;;;;;;;5081102;28;45192;-81
2021/09/21 04:08:18;;;;;;;;;48.33;34.00;;;;;;;;5063180;28;45506;-81
2021/09/21 04:10:44;;;;;;;;;43.75;35.25;;;;;;;;5081320;28;45522;-81
2021/09/21 04:13:09;;;;;;;;;46.67;35.67;;;;;;;;5081192;28;45457;-81
2021/09/21 04:15:34;;;;;;;;;44.33;33.67;;;;;;;;5063263;28;45255;-81
2021/09/21 04:18:04;;;;;;;;;48.00;39.00;;;;;;;;5084206;28;45225;-81
2021/09/21 04:20:29;;;;;;;;;48.25;37.50;;;;;;;;5084213;28;45843;-81
2021/09/21 04:22:54;;;;;;;;;52.67;38.67;;;;;;;;5081170;28;45419;-81
2021/09/21 04:25:19;;;;;;;;;46.00;33.67;;;;;;;;5081273;28;45302;-81
2021/09/21 04:27:46;;;;;;;;;53.25;40.25;;;;;;;;5080633;28;45291;-81
2021/09/21 04:30:17;;;;;;;;;44.75;35.75;;;;;;;;5062576;28;48101;-81
2021/09/21 04:32:42;;;;;;;;;49.75;39.00;;;;;;;;5081253;28;45408;-81
2021/09/21 04:35:08;;;;;;;;;51.00;39.33;;;;;;;;5081037;28;45396;-81
2021/09/21 04:37:33;;;;;;;;;51.75;39.25;;;;;;;;5062300;28;45716;-80
2021/09/21 04:39:58;;;;;;;;;44.67;35.33;;;;;;;;5079212;28;46141;-81
2021/09/21 04:42:25;;;;;;;;;52.33;40.00;;;;;;;;5081104;28;45377;-81
2021/09/21 04:44:50;;;;;;;;;47.50;37.25;;;;;;;;5085359;27;45229;-81
2021/09/21 04:47:15;;;;;;;;;49.75;39.00;;;;;;;;5085113;27;45653;-81
2021/09/21 04:49:41;;;;;;;;;53.00;37.00;;;;;;;;5088531;27;46198;-81
2021/09/21 04:52:06;;;;;;;;;49.33;37.33;;;;;;;;5082840;27;45444;-81
2021/09/21 04:54:31;;;;;;;;;52.67;39.00;;;;;;;;5080374;27;45432;-81
2021/09/21 04:56:56;;;;;;;;;46.00;37.00;;;;;;;;5092458;27;45527;-81
2021/09/21 04:59:22;;;;;;;;;50.33;37.33;;;;;;;;5071625;28;48049;-82
2021/09/21 05:01:47;;;;;;;;;49.75;37.50;;;;;;;;5083455;28;45306;-81
2021/09/21 05:04:12;;;;;;;;;53.25;42.00;;;;;;;;5083290;28;45149;-81
2021/09/21 05:06:37;;;;;;;;;52.00;38.00;;;;;;;;5085000;27;45544;-81
2021/09/21 05:09:03;;;;;;;;;50.00;38.33;;;;;;;;5059724;28;46018;-81
2021/09/21 05:11:28;;;;;;;;;52.33;40.33;;;;;;;;5073268;28;45488;-81
2021/09/21 05:13:53;;;;;;;;;45.33;37.00;;;;;;;;5060958;28;45307;-81
2021/09/21 05:16:18;;;;;;;;;49.33;38.00;;;;;;;;5060982;28;45622;-81
2021/09/21 05:18:44;;;;;;;;;39.67;32.33;;;;;;;;5083226;27;45530;-81
2021/09/21 05:21:09;;;;;;;;;41.50;35.00;;;;;;;;5046586;28;45438;-81
2021/09/21 05:23:35;;;;;;;;;47.00;36.25;;;;;;;;5048562;28;45545;-82
2021/09/21 05:26:03;;;;;;;;;47.50;37.00;;;;;;;;5046284;28;45255;-82
2021/09/21 05:28:28;;;;;;;;;45.00;34.75;;;;;;;;5078809;27;46818;-81
2021/09/21 05:30:53;;;;;;;;;43.33;34.00;;;;;;;;5040673;28;45507;-82
2021/09/21 05:33:19;;;;;;;;;46.00;35.25;;;;;;;;5041118;28;45479;-81
2021/09/21 05:35:44;;;;;;;;;43.75;34.25;;;;;;;;5038654;28;45449;-82
2021/09/21 05:38:09;;;;;;;;;47.33;33.33;;;;;;;;5050593;28;45238;-79
2021/09/21 05:40:35;;;;;;;;;47.25;34.00;;;;;;;;5038574;28;45397;-80
2021/09/21 05:43:00;;;;;;;;;42.00;33.75;;;;;;;;5048342;28;45419;-79
2021/09/21 05:45:25;;;;;;;;;42.50;35.00;;;;;;;;5048946;28;45458;-81
2021/09/21 05:47:51;;;;;;;;;49.50;36.50;;;;;;;;5038241;28;48467;-80
2021/09/21 05:50:16;;;;;;;;;47.75;34.75;;;;;;;;5037084;28;45375;-79
2021/09/21 05:52:42;;;;;;;;;48.25;34.00;;;;;;;;5046809;28;45416;-80
2021/09/21 05:55:08;;;;;;;;;40.50;33.50;;;;;;;;5056829;28;45316;-80
2021/09/21 05:57:33;;;;;;;;;46.00;34.75;;;;;;;;5038441;28;45327;-79
2021/09/21 05:59:58;;;;;;;;;40.25;34.00;;;;;;;;5037249;28;45263;-80
2021/09/21 06:02:23;;;;;;;;;45.33;35.00;;;;;;;;5040877;28;45260;-80
2021/09/21 06:04:51;;;;;;;;;53.67;41.67;;;;;;;;5048850;28;45655;-81
2021/09/21 06:07:17;;;;;;;;;49.50;35.25;;;;;;;;5048673;28;45593;-81
2021/09/21 06:09:42;;;;;;;;;39.00;34.25;;;;;;;;5046312;28;45531;-80
2021/09/21 06:12:07;;;;;;;;;36.00;29.00;;;;;;;;5049787;28;45413;-80
2021/09/21 06:14:32;;;;;;;;;34.33;29.00;;;;;;;;5050819;28;45330;-80
2021/09/21 06:16:58;;;;;;;;;37.33;32.67;;;;;;;;5049989;28;47534;-80
2021/09/21 06:19:23;;;;;;;;;39.75;29.25;;;;;;;;5050260;28;45304;-79
2021/09/21 06:21:48;;;;;;;;;32.00;25.50;;;;;;;;5049617;28;45413;-81
2021/09/21 06:24:14;;;;;;;;;34.67;31.33;;;;;;;;5047177;28;45302;-80
2021/09/21 06:26:39;;;;;;;;;37.00;31.00;;;;;;;;5043061;28;45422;-80
2021/09/21 06:29:04;;;;;;;;;36.75;26.50;;;;;;;;5046341;28;45510;-80
2021/09/21 06:31:30;;;;;;;;;31.75;26.00;;;;;;;;5046742;28;45509;-80
2021/09/21 06:33:55;;;;;;;;;32.50;31.00;;;;;;;;5055669;28;46498;-78
2021/09/21 06:36:20;;;;;;;;;33.50;27.00;;;;;;;;5056811;28;45486;-81
2021/09/21 06:38:46;;;;;;;;;35.25;29.25;;;;;;;;5048675;28;45817;-82
2021/09/21 06:41:11;;;;;;;;;35.33;30.00;;;;;;;;5059249;28;45225;-80
2021/09/21 06:43:36;;;;;;;;;33.75;29.75;;;;;;;;5067642;28;45590;-85
2021/09/21 06:46:02;;;;;;;;;35.50;25.25;;;;;;;;5066593;28;45139;-83
2021/09/21 06:48:27;;;;;;;;;26.00;21.50;;;;;;;;5049841;28;45545;-82
2021/09/21 06:50:53;;;;;;;;;34.00;28.75;;;;;;;;5045647;28;45237;-82
2021/09/21 06:53:18;;;;;;;;;27.75;25.50;;;;;;;;5046830;28;45476;-82
2021/09/21 06:55:43;;;;;;;;;24.50;21.75;;;;;;;;5047829;28;45622;-83
2021/09/21 06:58:09;;;;;;;;;31.25;24.25;;;;;;;;5047403;28;45450;-82
2021/09/21 07:00:37;;;;;;;;;28.50;24.50;;;;;;;;5049369;28;45386;-81
2021/09/21 07:03:03;;;;;;;;;36.00;25.25;;;;;;;;5043085;28;45430;-82
2021/09/21 07:05:28;;;;;;;;;27.50;24.25;;;;;;;;5042436;28;45421;-82
2021/09/21 07:07:53;;;;;;;;;31.00;26.33;;;;;;;;5042348;28;45211;-82
2021/09/21 07:10:19;;;;;;;;;34.33;26.67;;;;;;;;5042555;28;45458;-82
2021/09/21 07:12:46;;;;;;;;;28.25;22.50;;;;;;;;5040633;28;45856;-82
2021/09/21 07:15:12;;;;;;;;;32.50;27.25;;;;;;;;5042995;28;45247;-82
2021/09/21 07:17:37;;;;;;;;;26.00;22.75;;;;;;;;5045469;28;45248;-82
2021/09/21 07:20:03;;;;;;;;;28.67;24.67;;;;;;;;5049856;28;45338;-82
2021/09/21 07:22:30;;;;;;;;;26.50;22.25;;;;;;;;5063998;28;45477;-83
2021/09/21 07:24:55;;;;;;;;;29.25;25.75;;;;;;;;5082621;28;45263;-82
2021/09/21 07:27:23;;;;;;;;;25.75;20.75;;;;;;;;5082087;28;45201;-82
2021/09/21 07:29:51;;;;;;;;;25.50;21.25;;;;;;;;5064358;28;45407;-82
2021/09/21 07:32:16;;;;;;;;;30.25;24.00;;;;;;;;5063708;28;45294;-83
2021/09/21 07:34:41;;;;;;;;;26.33;22.00;;;;;;;;5082269;28;46335;-82
2021/09/21 07:37:09;;;;;;;;;29.33;22.67;;;;;;;;5081730;28;45434;-83
2021/09/21 07:39:34;;;;;;;;;22.50;20.25;;;;;;;;5081656;28;45232;-83
2021/09/21 07:42:00;;;;;;;;;25.33;18.33;;;;;;;;5082132;28;45188;-83
2021/09/21 07:44:25;;;;;;;;;24.50;18.75;;;;;;;;5082124;28;45363;-83
2021/09/21 07:46:50;;;;;;;;;21.00;19.00;;;;;;;;5082069;28;45365;-83
2021/09/21 07:49:15;;;;;;;;;22.00;18.00;;;;;;;;5063865;28;45196;-83
2021/09/21 07:51:41;;;;;;;;;21.00;19.00;;;;;;;;5081940;28;45175;-83
2021/09/21 07:54:08;;;;;;;;;19.75;18.00;;;;;;;;5082167;28;45358;-83
2021/09/21 07:56:33;;;;;;;;;21.00;16.25;;;;;;;;5081909;28;45438;-83
2021/09/21 07:58:59;;;;;;;;;17.50;16.00;;;;;;;;5080807;28;44667;-83
2021/09/21 08:01:24;;;;;;;;;22.50;16.75;;;;;;;;5079812;28;45358;-83
2021/09/21 08:03:49;;;;;;;;;18.67;16.00;;;;;;;;5100983;28;45312;-83
2021/09/21 08:06:15;;;;;;;;;17.00;14.75;;;;;;;;5092507;28;45256;-83
2021/09/21 08:08:40;;;;;;;;;16.75;15.50;;;;;;;;5090306;28;45284;-83
2021/09/21 08:11:08;;;;;;;;;17.50;13.00;;;;;;;;5070581;28;45548;-84
2021/09/21 08:13:33;;;;;;;;;15.00;15.00;;;;;;;;5083700;28;46122;-83
2021/09/21 08:15:58;;;;;;;;;12.00;12.00;;;;;;;;5064763;28;45679;-83
2021/09/21 08:18:23;;;;;;;;;19.00;15.33;;;;;;;;5082216;28;45280;-84
2021/09/21 08:20:49;;;;;;;;;15.50;14.00;;;;;;;;5081354;28;45284;-83
2021/09/21 08:23:14;;;;;;;;;13.75;12.25;;;;;;;;5063629;28;46041;-84
2021/09/21 08:25:39;;;;;;;;;14.50;14.00;;;;;;;;5081873;28;45426;-84
2021/09/21 08:28:05;;;;;;;;;9.00;9.00;;;;;;;;5063569;28;45419;-84
2021/09/21 08:30:31;;;;;;;;;10.25;9.50;;;;;;;;5081771;28;45307;-84
2021/09/21 08:32:56;;;;;;;;;11.75;11.00;;;;;;;;5081332;28;46311;-84
2021/09/21 08:35:21;;;;;;;;;9.00;9.00;;;;;;;;5080961;28;45458;-84
2021/09/21 08:37:47;;;;;;;;;10.00;10.00;;;;;;;;5081557;28;45485;-84
2021/09/21 08:40:12;;;;;;;;;15.00;12.50;;;;;;;;5062934;28;45378;-84
2021/09/21 08:42:38;;;;;;;;;14.25;12.25;;;;;;;;5081283;28;45385;-84
2021/09/21 08:45:03;;;;;;;;;13.25;12.00;;;;;;;;5083730;28;45340;-84
2021/09/21 08:47:29;;;;;;;;;12.50;10.50;;;;;;;;5084849;28;45450;-84
2021/09/21 08:49:55;;;;;;;;;12.25;11.00;;;;;;;;5082532;28;45472;-84
2021/09/21 08:52:20;;;;;;;;;15.00;12.00;;;;;;;;5062871;28;46969;-84
2021/09/21 08:54:46;;;;;;;;;16.25;16.25;;;;;;;;5081490;28;45489;-84
2021/09/21 08:57:11;;;;;;;;;15.25;10.25;;;;;;;;5081264;28;45504;-84
2021/09/21 08:59:37;;;;;;;;;9.75;9.75;;;;;;;;5081422;28;45415;-84
2021/09/21 09:02:11;;;;;;;;;11.25;9.50;;;;;;;;5081259;28;46359;-85
2021/09/21 09:04:37;;;;;;;;;8.75;8.75;;;;;;;;5080793;28;45252;-84
2021/09/21 09:07:04;;;;;;;;;10.75;9.25;;;;;;;;5080840;28;45239;-84
2021/09/21 09:09:30;;;;;;;;;11.00;9.00;;;;;;;;5062570;28;46220;-85
2021/09/21 09:11:57;;;;;;;;;13.00;9.00;;;;;;;;5080618;28;48012;-85
2021/09/21 09:14:23;;;;;;;;;11.50;7.75;;;;;;;;5062429;28;45388;-84
2021/09/21 09:16:53;;;;;;;;;12.50;10.00;;;;;;;;5081258;28;45413;-84
2021/09/21 09:19:18;;;;;;;;;11.00;10.50;;;;;;;;5062730;28;45497;-84
2021/09/21 09:21:46;;;;;;;;;8.33;6.67;;;;;;;;5061979;28;47275;-84
2021/09/21 09:24:13;;;;;;;;;10.75;10.50;;;;;;;;5062437;28;45605;-84
2021/09/21 09:26:42;;;;;;;;;9.00;9.00;;;;;;;;5063268;28;45428;-84
2021/09/21 09:29:11;;;;;;;;;13.50;11.00;;;;;;;;5084340;28;45584;-84
2021/09/21 09:31:37;;;;;;;;;9.00;8.00;;;;;;;;5085722;28;45398;-85
2021/09/21 09:34:07;;;;;;;;;10.00;9.00;;;;;;;;5082466;28;45407;-85
2021/09/21 09:36:41;;;;;;;;;10.75;9.50;;;;;;;;5063331;28;45279;-85
2021/09/21 09:39:07;;;;;;;;;11.50;9.75;;;;;;;;5081722;28;45330;-85
2021/09/21 09:41:39;;;;;;;;;10.50;9.50;;;;;;;;5063996;28;47957;-85
2021/09/21 09:44:06;;;;;;;;;12.50;10.75;;;;;;;;5081586;28;45308;-85
2021/09/21 09:46:52;;;;;;;;;12.50;11.00;;;;;;;;5065119;28;45283;-85
2021/09/21 09:49:26;;;;;;;;;14.50;10.75;;;;;;;;5083893;28;45243;-84
2021/09/21 09:51:52;;;;;;;;;13.00;11.50;;;;;;;;5066609;28;47441;-85
2021/09/21 09:54:17;;;;;;;;;8.00;6.50;;;;;;;;5066753;28;45217;-85
2021/09/21 09:56:44;;;;;;;;;14.00;10.75;;;;;;;;5085908;28;45228;-85
2021/09/21 09:59:10;;;;;;;;;12.00;11.50;;;;;;;;5085821;28;45600;-84
2021/09/21 10:01:35;;;;;;;;;13.25;12.25;;;;;;;;5063528;28;46861;-83
2021/09/21 10:04:01;;;;;;;;;11.75;11.25;;;;;;;;5082644;28;45322;-83
2021/09/21 10:06:27;;;;;;;;;16.00;12.25;;;;;;;;5083787;28;45319;-83
2021/09/21 10:08:53;;;;;;;;;13.50;13.50;;;;;;;;5083737;28;45349;-85
2021/09/21 10:11:18;;;;;;;;;10.75;10.75;;;;;;;;5065467;28;47208;-85
2021/09/21 10:13:44;;;;;;;;;14.00;14.00;;;;;;;;5068721;28;45312;-84
2021/09/21 10:16:10;;;;;;;;;15.00;12.00;;;;;;;;5086669;28;45362;-84
2021/09/21 10:18:38;;;;;;;;;14.75;14.00;;;;;;;;5083674;28;45398;-85
2021/09/21 10:21:04;;;;;;;;;16.25;10.75;;;;;;;;5083248;28;45547;-85
2021/09/21 10:23:33;;;;;;;;;15.25;15.00;;;;;;;;5083765;28;45204;-85
2021/09/21 10:26:09;;;;;;;;;16.25;15.00;;;;;;;;5083813;28;45303;-85
2021/09/21 10:28:38;;;;;;;;;16.75;12.75;;;;;;;;5083695;28;45359;-85
2021/09/21 10:31:10;;;;;;;;;15.50;14.50;;;;;;;;5083522;28;45304;-84
2021/09/21 10:33:35;;;;;;;;;17.75;15.50;;;;;;;;5083386;28;45525;-84
2021/09/21 10:36:00;;;;;;;;;16.00;16.00;;;;;;;;5083805;28;45439;-84
2021/09/21 10:38:25;;;;;;;;;64.75;51.75;;;;;;;;5064930;28;45294;-84
2021/09/21 10:40:53;;;;;;;;;19.25;18.50;;;;;;;;5083367;28;46195;-84
2021/09/21 10:43:21;;;;;;;;;16.25;16.25;;;;;;;;5083244;28;45224;-85
2021/09/21 10:45:47;;;;;;;;;24.50;19.50;;;;;;;;5065185;28;45400;-84
2021/09/21 10:48:17;;;;;;;;;15.00;13.75;;;;;;;;5082829;28;45740;-84
2021/09/21 10:50:43;;;;;;;;;23.75;21.00;;;;;;;;5064557;28;47489;-84
2021/09/21 10:53:08;;;;;;;;;20.50;18.50;;;;;;;;5082982;28;45408;-84
2021/09/21 10:55:38;;;;;;;;;25.25;21.25;;;;;;;;5064774;28;45436;-84
2021/09/21 10:58:04;;;;;;;;;22.00;15.75;;;;;;;;5067825;28;45413;-84
2021/09/21 11:00:34;;;;;;;;;19.00;18.00;;;;;;;;5067715;28;47088;-84
2021/09/21 11:02:59;;;;;;;;;24.75;19.75;;;;;;;;5082763;28;45236;-84
2021/09/21 11:05:28;;;;;;;;;19.25;17.50;;;;;;;;5064613;28;45284;-84
2021/09/21 11:07:56;;;;;;;;;21.25;20.00;;;;;;;;5082696;28;45342;-83
2021/09/21 11:10:24;;;;;;;;;26.00;19.00;;;;;;;;5082707;28;46559;-84
2021/09/21 11:12:51;;;;;;;;;21.50;21.00;;;;;;;;5082586;28;45425;-84
2021/09/21 11:15:16;;;;;;;;;20.75;18.25;;;;;;;;5081622;28;45282;-84
2021/09/21 11:17:42;;;;;;;;;23.00;19.75;;;;;;;;5082420;28;45382;-84
2021/09/21 11:20:07;;;;;;;;;22.75;20.00;;;;;;;;5082254;28;46078;-83
2021/09/21 11:22:33;;;;;;;;;27.25;24.50;;;;;;;;5064139;28;45427;-84
2021/09/21 11:25:00;;;;;;;;;20.50;17.75;;;;;;;;5082823;28;45294;-83
2021/09/21 11:27:27;;;;;;;;;19.00;18.50;;;;;;;;5082404;28;45450;-83
2021/09/21 11:29:58;;;;;;;;;19.75;18.25;;;;;;;;5064097;28;46353;-83
2021/09/21 11:32:24;;;;;;;;;23.75;21.75;;;;;;;;5082159;28;45565;-84
2021/09/21 11:35:18;;;;;;;;;23.50;20.00;;;;;;;;5064066;28;45475;-83
2021/09/21 11:37:46;;;;;;;;;24.75;21.50;;;;;;;;5070414;28;44812;-83
2021/09/21 11:40:25;;;;;;;;;17.00;17.00;;;;;;;;5094224;28;45461;-83
2021/09/21 11:42:50;;;;;;;;;24.00;19.25;;;;;;;;5068649;28;45242;-83
2021/09/21 11:45:15;;;;;;;;;16.50;15.75;;;;;;;;5068218;28;46549;-83
2021/09/21 11:47:42;;;;;;;;;18.75;18.00;;;;;;;;5082581;28;45394;-83
2021/09/21 11:50:12;;;;;;;;;20.75;19.25;;;;;;;;5081926;28;45330;-83
2021/09/21 11:52:37;;;;;;;;;17.75;17.00;;;;;;;;5082361;28;45296;-83
2021/09/21 11:55:08;;;;;;;;;20.75;19.75;;;;;;;;5082093;28;45261;-83
2021/09/21 11:57:35;;;;;;;;;22.25;16.00;;;;;;;;5063678;28;45747;-83
2021/09/21 12:00:02;;;;;;;;;18.25;16.00;;;;;;;;5063601;28;46305;-83
2021/09/21 12:02:31;;;;;;;;;18.25;17.50;;;;;;;;5082407;28;45212;-83
2021/09/21 12:04:57;;;;;;;;;19.00;19.00;;;;;;;;5082039;28;45480;-83
2021/09/21 12:07:22;;;;;;;;;23.00;19.75;;;;;;;;5063591;28;46110;-83
2021/09/21 12:09:48;;;;;;;;;21.25;18.50;;;;;;;;5082011;28;46380;-83
2021/09/21 12:12:21;;;;;;;;;21.75;18.75;;;;;;;;5081917;28;45413;-83
2021/09/21 12:14:57;;;;;;;;;19.00;17.75;;;;;;;;5081868;28;45351;-83
2021/09/21 12:17:22;;;;;;;;;21.25;19.00;;;;;;;;5063455;28;45554;-83
2021/09/21 12:19:47;;;;;;;;;19.00;16.50;;;;;;;;5063588;28;46324;-83
2021/09/21 12:22:20;;;;;;;;;22.00;20.50;;;;;;;;5081379;28;45315;-83
2021/09/21 12:24:45;;;;;;;;;21.25;20.00;;;;;;;;5066787;28;45272;-83
2021/09/21 12:27:10;;;;;;;;;21.25;19.00;;;;;;;;5085216;28;45177;-82
2021/09/21 12:29:36;;;;;;;;;20.75;19.00;;;;;;;;5086134;28;46238;-84
2021/09/21 12:32:02;;;;;;;;;21.50;19.75;;;;;;;;5064514;28;45230;-83
2021/09/21 12:34:34;;;;;;;;;24.25;21.75;;;;;;;;5064205;28;45538;-83
2021/09/21 12:37:00;;;;;;;;;20.25;17.75;;;;;;;;5063503;28;45177;-83
2021/09/21 12:39:27;;;;;;;;;17.75;17.75;;;;;;;;5082408;28;45208;-83
2021/09/21 12:41:53;;;;;;;;;27.00;24.25;;;;;;;;5081933;28;45418;-83
2021/09/21 12:44:22;;;;;;;;;16.75;16.00;;;;;;;;5082213;28;45376;-82
2021/09/21 12:46:49;;;;;;;;;20.25;19.00;;;;;;;;5082470;28;45224;-83
2021/09/21 12:49:16;;;;;;;;;25.00;21.25;;;;;;;;5063516;28;47186;-83
2021/09/21 12:51:54;;;;;;;;;22.50;21.75;;;;;;;;5064155;28;45447;-83
2021/09/21 12:54:21;;;;;;;;;25.25;19.25;;;;;;;;5082588;28;45465;-83
2021/09/21 12:56:48;;;;;;;;;24.00;21.00;;;;;;;;5082471;28;45611;-83
2021/09/21 12:59:15;;;;;;;;;26.75;21.25;;;;;;;;5084738;28;45481;-84
2021/09/21 13:01:41;;;;;;;;;29.25;24.00;;;;;;;;5085069;28;45457;-83
2021/09/21 13:04:07;;;;;;;;;23.25;21.00;;;;;;;;5084722;28;45280;-82
2021/09/21 13:06:32;;;;;;;;;23.00;21.75;;;;;;;;5084327;28;45394;-83
2021/09/21 13:08:58;;;;;;;;;23.25;20.00;;;;;;;;5084153;28;45410;-82
2021/09/21 13:11:23;;;;;;;;;23.25;21.00;;;;;;;;5070393;28;45280;-83
2021/09/21 13:13:49;;;;;;;;;24.25;21.50;;;;;;;;5085760;28;45283;-83
2021/09/21 13:16:14;;;;;;;;;20.50;17.00;;;;;;;;5064734;28;45374;-82
2021/09/21 13:18:40;;;;;;;;;25.25;22.75;;;;;;;;5082139;28;46323;-83
2021/09/21 13:21:06;;;;;;;;;24.50;20.50;;;;;;;;5081757;28;45345;-83
2021/09/21 13:23:31;;;;;;;;;24.75;20.25;;;;;;;;5065237;28;45386;-83
2021/09/21 13:25:56;;;;;;;;;27.00;23.75;;;;;;;;5064147;28;45370;-83
2021/09/21 13:28:22;;;;;;;;;22.50;19.25;;;;;;;;5063146;28;46963;-83
2021/09/21 13:30:50;;;;;;;;;21.00;20.00;;;;;;;;5082399;28;45169;-83
2021/09/21 13:33:19;;;;;;;;;26.50;24.00;;;;;;;;5065381;28;45240;-83
2021/09/21 13:35:44;;;;;;;;;25.75;23.75;;;;;;;;5083870;28;45284;-83
2021/09/21 13:38:10;;;;;;;;;23.75;20.25;;;;;;;;5084458;28;45392;-83
2021/09/21 13:40:35;;;;;;;;;24.25;22.75;;;;;;;;5085537;28;45422;-83
2021/09/21 13:43:00;;;;;;;;;24.50;22.50;;;;;;;;5067213;28;45385;-83
2021/09/21 13:45:27;;;;;;;;;27.25;23.25;;;;;;;;5085301;28;45457;-83
2021/09/21 13:47:53;;;;;;;;;26.50;21.75;;;;;;;;5085146;28;45219;-83
2021/09/21 13:50:19;;;;;;;;;21.75;20.75;;;;;;;;5083800;28;45371;-83
2021/09/21 13:52:46;;;;;;;;;27.50;21.25;;;;;;;;5082312;28;45281;-83
2021/09/21 13:55:11;;;;;;;;;23.50;17.75;;;;;;;;5064531;28;45544;-83
2021/09/21 13:57:37;;;;;;;;;21.25;19.75;;;;;;;;5066376;28;46873;-82
2021/09/21 14:00:04;;;;;;;;;26.00;19.75;;;;;;;;5065390;28;45524;-82
2021/09/21 14:02:32;;;;;;;;;25.50;23.00;;;;;;;;5063216;28;45410;-84
2021/09/21 14:04:58;;;;;;;;;28.50;21.25;;;;;;;;5062777;28;45756;-84
2021/09/21 14:07:23;;;;;;;;;22.33;21.33;;;;;;;;5060772;28;47373;-84
2021/09/21 14:09:49;;;;;;;;;25.00;19.50;;;;;;;;5072417;28;45209;-84
2021/09/21 14:12:18;;;;;;;;;22.75;18.00;;;;;;;;5081038;28;45289;-83
2021/09/21 14:14:43;;;;;;;;;24.25;21.75;;;;;;;;5082071;28;45548;-84
2021/09/21 14:17:12;;;;;;;;;25.50;21.25;;;;;;;;5062961;28;47220;-84
2021/09/21 14:19:38;;;;;;;;;20.00;18.75;;;;;;;;5074919;28;45159;-83
2021/09/21 14:22:03;;;;;;;;;24.25;20.25;;;;;;;;5080673;28;45575;-84
2021/09/21 14:24:32;;;;;;;;;26.00;21.50;;;;;;;;5063005;28;45380;-83